createdAt,value
2018-03-24T00:00:18.556Z,23.27
2018-03-24T00:02:46.037Z,21.98
2018-03-24T00:05:13.497Z,20.88
2018-03-24T00:07:40.968Z,22.95
2018-03-24T00:10:08.414Z,22.08
2018-03-24T00:12:35.905Z,23.15
2018-03-24T00:15:03.384Z,23.70
2018-03-24T00:17:30.888Z,22.60
2018-03-24T00:19:58.504Z,23.65
2018-03-24T00:22:26.182Z,24.30
2018-03-24T00:24:53.739Z,22.20
2018-03-24T00:27:21.244Z,24.05
2018-03-24T00:29:48.733Z,25.08
2018-03-24T00:32:17.122Z,24.77
2018-03-24T00:34:44.614Z,25.40
2018-03-24T00:37:12.059Z,25.17
2018-03-24T00:39:39.552Z,25.55
2018-03-24T00:42:07.012Z,26.10
2018-03-24T00:44:34.481Z,26.62
2018-03-24T00:47:02.719Z,25.77
2018-03-24T00:49:30.196Z,26.67
2018-03-24T00:51:57.652Z,27.33
2018-03-24T00:54:25.130Z,28.33
2018-03-24T00:56:53.380Z,31.70
2018-03-24T00:59:20.830Z,29.17
2018-03-24T01:01:48.317Z,29.80
2018-03-24T01:04:16.561Z,28.75
2018-03-24T01:06:44.027Z,27.50
2018-03-24T01:09:11.507Z,27.10
2018-03-24T01:11:39.743Z,27.45
2018-03-24T01:14:07.192Z,27.02
2018-03-24T01:16:34.664Z,25.65
2018-03-24T01:19:02.141Z,27.45
2018-03-24T01:21:29.608Z,26.42
2018-03-24T01:23:57.845Z,26.60
2018-03-24T01:26:25.326Z,27.40
2018-03-24T01:28:52.791Z,25.98
2018-03-24T01:31:21.011Z,26.70
2018-03-24T01:33:48.484Z,25.75
2018-03-24T01:36:15.943Z,28.10
2018-03-24T01:38:43.407Z,26.40
2018-03-24T01:41:10.862Z,27.62
2018-03-24T01:43:38.347Z,27.00
2018-03-24T01:46:05.799Z,28.62
2018-03-24T01:48:34.026Z,28.60
2018-03-24T01:51:01.482Z,29.85
2018-03-24T01:53:40.988Z,27.73
2018-03-24T01:56:09.204Z,29.98
2018-03-24T01:58:36.672Z,30.50
2018-03-24T02:01:04.148Z,31.12
2018-03-24T02:03:31.599Z,30.55
2018-03-24T02:05:59.068Z,29.48
2018-03-24T02:08:27.283Z,29.40
2018-03-24T02:10:54.758Z,30.30
2018-03-24T02:13:22.242Z,30.30
2018-03-24T02:15:49.711Z,30.58
2018-03-24T02:18:17.940Z,30.05
2018-03-24T02:20:45.376Z,29.83
2018-03-24T02:23:12.848Z,28.65
2018-03-24T02:25:40.308Z,29.48
2018-03-24T02:28:07.789Z,29.25
2018-03-24T02:30:35.232Z,30.17
2018-03-24T02:33:02.703Z,29.35
2018-03-24T02:35:30.164Z,27.37
2018-03-24T02:37:57.635Z,27.33
2018-03-24T02:40:25.860Z,28.57
2018-03-24T02:42:53.347Z,27.43
2018-03-24T02:45:20.801Z,28.83
2018-03-24T02:47:48.263Z,27.00
2018-03-24T02:50:15.753Z,28.90
2018-03-24T02:52:43.976Z,32.43
2018-03-24T02:55:11.450Z,26.57
2018-03-24T02:57:38.907Z,27.87
2018-03-24T03:00:06.388Z,28.67
2018-03-24T03:02:34.603Z,25.50
2018-03-24T03:05:02.076Z,26.50
2018-03-24T03:07:29.528Z,28.07
2018-03-24T03:09:57.072Z,26.30
2018-03-24T03:12:24.516Z,26.77
2018-03-24T03:14:51.981Z,27.13
2018-03-24T03:17:19.476Z,27.97
2018-03-24T03:19:46.948Z,29.10
2018-03-24T03:22:15.195Z,30.67
2018-03-24T03:24:42.654Z,27.47
2018-03-24T03:27:10.137Z,27.60
2018-03-24T03:29:37.575Z,30.30
2018-03-24T03:32:07.026Z,30.20
2018-03-24T03:34:34.492Z,27.97
2018-03-24T03:37:01.966Z,27.53
2018-03-24T03:39:29.432Z,29.20
2018-03-24T03:41:56.897Z,25.20
2018-03-24T03:44:24.354Z,27.17
2018-03-24T03:46:51.842Z,27.60
2018-03-24T03:49:20.051Z,30.03
2018-03-24T03:51:47.487Z,27.17
2018-03-24T03:54:14.965Z,28.50
2018-03-24T03:56:42.407Z,25.40
2018-03-24T03:59:09.900Z,32.33
2018-03-24T04:01:37.376Z,27.73
2018-03-24T04:04:04.856Z,25.23
2018-03-24T04:06:33.070Z,27.53
2018-03-24T04:09:00.540Z,30.67
2018-03-24T04:11:27.987Z,25.80
2018-03-24T04:13:55.472Z,29.30
2018-03-24T04:16:22.934Z,30.07
2018-03-24T04:18:50.380Z,26.90
2018-03-24T04:21:18.618Z,30.40
2018-03-24T04:23:46.088Z,33.37
2018-03-24T04:26:13.578Z,29.50
2018-03-24T04:28:41.048Z,30.43
2018-03-24T04:31:09.287Z,31.57
2018-03-24T04:33:36.762Z,30.10
2018-03-24T04:36:04.260Z,28.40
2018-03-24T04:38:31.710Z,26.00
2018-03-24T04:40:59.204Z,26.50
2018-03-24T04:43:26.651Z,28.63
2018-03-24T04:45:54.154Z,28.37
2018-03-24T04:48:21.620Z,31.50
2018-03-24T04:50:49.856Z,28.93
2018-03-24T04:53:17.314Z,27.77
2018-03-24T04:55:44.827Z,27.73
2018-03-24T04:58:12.302Z,26.13
2018-03-24T05:00:39.763Z,30.83
2018-03-24T05:03:07.212Z,32.17
2018-03-24T05:05:34.693Z,28.30
2018-03-24T05:08:02.135Z,30.60
2018-03-24T05:10:29.591Z,30.00
2018-03-24T05:12:57.080Z,30.67
2018-03-24T05:15:24.518Z,31.30
2018-03-24T05:17:51.986Z,31.80
2018-03-24T05:20:19.434Z,27.73
2018-03-24T05:22:46.928Z,33.20
2018-03-24T05:25:15.153Z,26.67
2018-03-24T05:27:42.624Z,28.40
2018-03-24T05:30:10.071Z,29.40
2018-03-24T05:32:37.531Z,29.67
2018-03-24T05:35:04.993Z,27.50
2018-03-24T05:37:32.472Z,30.30
2018-03-24T05:40:00.723Z,26.63
2018-03-24T05:42:28.167Z,26.97
2018-03-24T05:44:55.646Z,32.13
2018-03-24T05:47:23.091Z,33.80
2018-03-24T05:49:50.561Z,30.87
2018-03-24T05:52:18.006Z,28.27
2018-03-24T05:54:45.487Z,31.50
2018-03-24T05:57:12.928Z,31.37
2018-03-24T05:59:40.403Z,34.17
2018-03-24T06:02:08.641Z,27.40
2018-03-24T06:04:36.132Z,33.97
2018-03-24T06:07:04.350Z,33.00
2018-03-24T06:09:31.812Z,30.10
2018-03-24T06:11:59.285Z,33.27
2018-03-24T06:14:26.745Z,30.70
2018-03-24T06:16:54.220Z,32.17
2018-03-24T06:19:21.663Z,34.50
2018-03-24T06:21:49.148Z,31.40
2018-03-24T06:24:17.364Z,34.47
2018-03-24T06:26:44.848Z,33.60
2018-03-24T06:29:12.304Z,34.77
2018-03-24T06:31:43.445Z,37.60
2018-03-24T06:34:10.888Z,34.63
2018-03-24T06:36:39.985Z,32.53
2018-03-24T06:39:07.449Z,37.57
2018-03-24T06:41:34.927Z,32.73
2018-03-24T06:44:02.378Z,38.03
2018-03-24T06:46:29.847Z,35.33
2018-03-24T06:48:58.098Z,34.40
2018-03-24T06:51:25.548Z,33.13
2018-03-24T06:53:53.035Z,35.60
2018-03-24T06:56:20.534Z,39.50
2018-03-24T06:58:47.991Z,37.87
2018-03-24T07:01:15.484Z,38.50
2018-03-24T07:03:42.970Z,32.73
2018-03-24T07:06:11.205Z,39.43
2018-03-24T07:08:38.689Z,42.63
2018-03-24T07:11:06.156Z,35.33
2018-03-24T07:13:33.635Z,35.33
2018-03-24T07:16:01.104Z,39.03
2018-03-24T07:18:28.561Z,35.77
2018-03-24T07:20:56.026Z,37.27
2018-03-24T07:23:23.483Z,37.57
2018-03-24T07:25:50.959Z,35.23
2018-03-24T07:28:18.415Z,37.93
2018-03-24T07:30:45.902Z,32.40
2018-03-24T07:33:13.344Z,39.23
2018-03-24T07:35:40.815Z,32.67
2018-03-24T07:38:08.297Z,36.30
2018-03-24T07:40:35.752Z,28.23
2018-03-24T07:43:03.228Z,35.60
2018-03-24T07:45:30.719Z,36.73
2018-03-24T07:47:58.176Z,38.53
2018-03-24T07:50:25.679Z,32.53
2018-03-24T07:52:53.186Z,33.03
2018-03-24T07:55:20.752Z,31.33
2018-03-24T07:57:48.338Z,36.43
2018-03-24T08:00:15.833Z,33.07
2018-03-24T08:02:43.280Z,37.17
2018-03-24T08:05:10.774Z,36.37
2018-03-24T08:07:38.220Z,30.40
2018-03-24T08:10:05.755Z,31.63
2018-03-24T08:12:33.280Z,33.43
2018-03-24T08:15:01.521Z,32.20
2018-03-24T08:17:28.986Z,33.60
2018-03-24T08:19:56.490Z,32.43
2018-03-24T08:22:23.955Z,30.20
2018-03-24T08:24:51.454Z,31.73
2018-03-24T08:27:18.915Z,28.83
2018-03-24T08:29:46.381Z,29.10
2018-03-24T08:32:14.650Z,32.70
2018-03-24T08:34:42.105Z,32.10
2018-03-24T08:37:09.789Z,27.93
2018-03-24T08:39:38.016Z,26.77
2018-03-24T08:42:05.478Z,24.50
2018-03-24T08:44:32.952Z,27.07
2018-03-24T08:47:00.423Z,24.47
2018-03-24T08:49:28.689Z,29.03
2018-03-24T08:51:56.173Z,24.07
2018-03-24T08:54:23.640Z,21.23
2018-03-24T08:56:51.132Z,24.20
2018-03-24T08:59:18.585Z,21.87
2018-03-24T09:01:46.084Z,18.10
2018-03-24T09:04:14.319Z,18.30
2018-03-24T09:06:41.796Z,22.93
2018-03-24T09:09:09.284Z,18.90
2018-03-24T09:11:36.769Z,16.63
2018-03-24T09:14:04.256Z,17.53
2018-03-24T09:16:31.695Z,18.40
2018-03-24T09:18:59.189Z,18.13
2018-03-24T09:21:26.643Z,16.87
2018-03-24T09:23:54.207Z,16.30
2018-03-24T09:26:22.427Z,17.30
2018-03-24T09:28:49.926Z,16.07
2018-03-24T09:31:17.371Z,15.07
2018-03-24T09:33:44.872Z,13.07
2018-03-24T09:36:13.117Z,11.83
2018-03-24T09:38:40.564Z,13.73
2018-03-24T09:41:08.051Z,11.63
2018-03-24T09:43:36.285Z,12.03
2018-03-24T09:46:03.756Z,10.73
2018-03-24T09:48:31.221Z,10.60
2018-03-24T09:50:58.706Z,13.40
2018-03-24T09:53:26.155Z,10.43
2018-03-24T09:55:53.648Z,10.97
2018-03-24T09:58:21.115Z,8.77
2018-03-24T10:00:48.576Z,8.33
2018-03-24T10:03:16.077Z,10.40
2018-03-24T10:05:43.535Z,9.90
2018-03-24T10:08:11.034Z,9.90
2018-03-24T10:10:38.539Z,12.30
2018-03-24T10:13:06.792Z,11.03
2018-03-24T10:15:34.288Z,11.60
2018-03-24T10:18:01.791Z,10.90
2018-03-24T10:23:59.762Z,11.77
2018-03-24T10:26:27.218Z,14.40
2018-03-24T10:28:54.721Z,11.23
2018-03-24T10:31:22.199Z,12.80
2018-03-24T10:33:56.219Z,11.53
2018-03-24T10:36:23.698Z,11.13
2018-03-24T10:38:51.189Z,11.20
2018-03-24T10:41:18.704Z,11.80
2018-03-24T10:43:46.951Z,11.23
2018-03-24T10:46:15.204Z,11.20
2018-03-24T10:48:43.466Z,12.03
2018-03-24T10:51:10.948Z,11.53
2018-03-24T10:53:38.409Z,10.40
2018-03-24T10:56:06.675Z,10.33
2018-03-24T10:58:34.905Z,11.10
2018-03-24T11:01:03.197Z,10.33
2018-03-24T11:03:30.693Z,9.73
2018-03-24T11:05:58.919Z,11.68
2018-03-24T11:08:26.420Z,11.25
2018-03-24T11:10:54.644Z,10.93
2018-03-24T11:13:22.125Z,10.15
2018-03-24T11:15:49.584Z,9.90
2018-03-24T11:18:17.076Z,9.45
2018-03-24T11:20:45.340Z,11.57
2018-03-24T11:23:13.561Z,9.30
2018-03-24T11:28:08.060Z,10.67
2018-03-24T11:30:35.530Z,8.57
2018-03-24T11:33:03.058Z,10.30
2018-03-24T11:35:30.505Z,10.80
2018-03-24T11:37:58.713Z,9.43
2018-03-24T11:40:26.175Z,10.23
2018-03-24T11:42:53.631Z,10.30
2018-03-24T11:45:21.130Z,9.17
2018-03-24T11:47:49.348Z,10.47
2018-03-24T11:50:16.845Z,9.30
2018-03-24T11:52:44.263Z,9.40
2018-03-24T11:55:11.743Z,9.27
2018-03-24T11:57:39.192Z,8.57
2018-03-24T12:00:10.336Z,9.67
2018-03-24T12:02:37.792Z,10.30
2018-03-24T12:05:05.266Z,10.83
2018-03-24T12:07:32.783Z,9.50
2018-03-24T12:10:00.215Z,7.07
2018-03-24T12:12:27.726Z,9.77
2018-03-24T12:14:55.192Z,9.50
2018-03-24T12:17:24.228Z,8.90
2018-03-24T12:19:52.451Z,9.50
2018-03-24T12:22:19.898Z,10.17
2018-03-24T12:24:47.379Z,10.00
2018-03-24T12:27:14.929Z,9.50
2018-03-24T12:29:42.380Z,9.27
2018-03-24T12:32:09.908Z,9.13
2018-03-24T12:34:37.418Z,8.77
2018-03-24T12:37:05.724Z,7.47
2018-03-24T12:39:33.243Z,8.53
2018-03-24T12:42:00.764Z,8.53
2018-03-24T12:44:28.282Z,9.20
2018-03-24T12:46:56.576Z,8.20
2018-03-24T12:49:24.100Z,8.03
2018-03-24T12:51:52.413Z,10.40
2018-03-24T12:54:19.912Z,9.57
2018-03-24T12:56:47.462Z,9.13
2018-03-24T12:59:14.973Z,9.80
2018-03-24T13:01:42.508Z,9.30
2018-03-24T13:04:10.779Z,9.97
2018-03-24T13:06:38.304Z,8.67
2018-03-24T13:09:05.828Z,8.63
2018-03-24T13:11:33.329Z,8.73
2018-03-24T13:14:00.970Z,10.17
2018-03-24T13:16:28.469Z,8.70
2018-03-24T13:18:55.995Z,9.13
2018-03-24T13:21:23.500Z,9.63
2018-03-24T13:23:51.918Z,8.63
2018-03-24T13:26:19.435Z,9.00
2018-03-24T13:28:47.739Z,8.67
2018-03-24T13:31:15.265Z,9.37
2018-03-24T13:33:43.584Z,9.83
2018-03-24T13:36:11.113Z,9.60
2018-03-24T13:38:38.616Z,9.50
2018-03-24T13:41:06.146Z,9.43
2018-03-24T13:43:33.649Z,8.23
2018-03-24T13:46:01.919Z,9.67
2018-03-24T13:48:29.390Z,10.03
2018-03-24T13:50:56.867Z,9.53
2018-03-24T13:53:25.093Z,9.50
2018-03-24T13:55:52.597Z,8.00
2018-03-24T13:58:20.809Z,9.40
2018-03-24T14:00:48.304Z,10.77
2018-03-24T14:03:15.817Z,11.17
2018-03-24T14:05:43.320Z,11.23
2018-03-24T14:08:10.775Z,9.80
2018-03-24T14:10:38.224Z,9.73
2018-03-24T14:13:07.230Z,10.27
2018-03-24T14:15:34.696Z,8.37
2018-03-24T14:18:02.931Z,8.47
2018-03-24T14:20:30.381Z,9.03
2018-03-24T14:22:57.914Z,9.80
2018-03-24T14:25:25.372Z,10.80
2018-03-24T14:27:52.869Z,12.07
2018-03-24T14:30:20.368Z,11.23
2018-03-24T14:32:48.609Z,9.90
2018-03-24T14:35:16.071Z,10.27
2018-03-24T14:37:44.316Z,11.13
2018-03-24T14:40:11.772Z,10.07
2018-03-24T14:42:39.270Z,12.40
2018-03-24T14:45:06.714Z,12.10
2018-03-24T14:47:34.196Z,12.03
2018-03-24T14:50:02.459Z,10.30
2018-03-24T14:52:29.933Z,10.63
2018-03-24T14:54:57.416Z,10.90
2018-03-24T14:57:24.909Z,11.67
2018-03-24T14:59:52.390Z,11.40
2018-03-24T15:02:20.607Z,12.37
2018-03-24T15:04:48.104Z,13.10
2018-03-24T15:07:15.579Z,14.40
2018-03-24T15:09:43.810Z,11.10
2018-03-24T15:12:11.331Z,11.40
2018-03-24T15:14:38.811Z,10.43
2018-03-24T15:17:06.280Z,12.57
2018-03-24T15:19:33.769Z,14.27
2018-03-24T15:22:01.257Z,13.57
2018-03-24T15:24:28.769Z,11.70
2018-03-24T15:26:56.248Z,11.73
2018-03-24T15:29:36.316Z,10.70
2018-03-24T15:35:22.102Z,15.33
2018-03-24T15:37:50.322Z,13.53
2018-03-24T15:40:17.819Z,14.53
2018-03-24T15:42:45.274Z,15.13
2018-03-24T15:45:12.726Z,15.47
2018-03-24T15:47:40.230Z,14.60
2018-03-24T15:50:07.691Z,14.97
2018-03-24T15:52:35.195Z,14.30
2018-03-24T15:55:02.655Z,14.50
2018-03-24T15:57:30.142Z,13.10
2018-03-24T15:59:58.418Z,12.40
2018-03-24T16:02:26.655Z,15.07
2018-03-24T16:04:54.169Z,12.97
2018-03-24T16:07:21.662Z,13.37
2018-03-24T16:09:49.174Z,13.67
2018-03-24T16:12:16.656Z,13.27
2018-03-24T16:14:44.099Z,13.43
2018-03-24T16:17:11.680Z,14.20
2018-03-24T16:19:39.180Z,13.47
2018-03-24T16:22:07.416Z,13.13
2018-03-24T16:24:34.945Z,12.33
2018-03-24T16:27:02.466Z,12.50
2018-03-24T16:29:30.780Z,12.00
2018-03-24T16:31:58.300Z,12.47
2018-03-24T16:34:26.615Z,13.03
2018-03-24T16:36:54.158Z,12.47
2018-03-24T16:39:21.740Z,12.00
2018-03-24T16:41:49.246Z,11.33
2018-03-24T16:44:16.786Z,11.73
2018-03-24T16:46:44.328Z,13.80
2018-03-24T16:49:11.866Z,12.87
2018-03-24T16:51:39.381Z,12.10
2018-03-24T16:54:07.610Z,10.20
2018-03-24T16:56:35.081Z,13.00
2018-03-24T16:59:02.549Z,14.83
2018-03-24T17:01:30.037Z,13.70
2018-03-24T17:03:58.293Z,11.30
2018-03-24T17:06:25.771Z,14.60
2018-03-24T17:08:54.065Z,13.37
2018-03-24T17:11:21.527Z,13.13
2018-03-24T17:13:49.021Z,12.27
2018-03-24T17:16:16.531Z,13.10
2018-03-24T17:18:43.988Z,14.80
2018-03-24T17:21:11.704Z,11.83
2018-03-24T17:23:39.164Z,13.23
2018-03-24T17:26:06.662Z,12.90
2018-03-24T17:28:34.124Z,11.53
2018-03-24T17:31:01.647Z,12.27
2018-03-24T17:33:29.095Z,11.40
2018-03-24T17:35:56.601Z,12.90
2018-03-24T17:38:24.056Z,15.63
2018-03-24T17:40:51.563Z,14.70
2018-03-24T17:43:19.019Z,13.23
2018-03-24T17:45:46.487Z,15.60
2018-03-24T17:48:14.757Z,14.00
2018-03-24T17:50:42.217Z,12.90
2018-03-24T17:53:10.458Z,11.83
2018-03-24T17:55:37.937Z,14.40
2018-03-24T17:58:05.430Z,14.67
2018-03-24T18:00:32.901Z,15.43
2018-03-24T18:03:00.396Z,14.97
2018-03-24T18:05:27.865Z,14.80
2018-03-24T18:07:55.469Z,14.97
2018-03-24T18:10:22.957Z,13.67
2018-03-24T18:12:50.448Z,14.97
2018-03-24T18:15:18.008Z,14.50
2018-03-24T18:17:46.265Z,15.87
2018-03-24T18:20:13.768Z,15.40
2018-03-24T18:22:41.281Z,16.00
2018-03-24T18:25:08.757Z,15.50
2018-03-24T18:27:36.975Z,19.63
2018-03-24T18:30:04.481Z,16.03
2018-03-24T18:32:31.964Z,14.57
2018-03-24T18:35:00.237Z,15.83
2018-03-24T18:37:27.677Z,17.77
2018-03-24T18:39:55.945Z,18.10
2018-03-24T18:42:23.397Z,20.57
2018-03-24T18:44:50.905Z,18.87
2018-03-24T18:47:18.433Z,19.17
2018-03-24T18:49:46.691Z,18.67
2018-03-24T18:52:14.177Z,17.80
2018-03-24T18:54:41.668Z,18.50
2018-03-24T18:57:09.161Z,18.90
2018-03-24T18:59:37.412Z,18.00
2018-03-24T19:02:04.901Z,18.53
2018-03-24T19:04:33.166Z,18.30
2018-03-24T19:07:00.675Z,18.50
2018-03-24T19:09:28.146Z,18.90
2018-03-24T19:11:55.645Z,19.20
2018-03-24T19:14:23.115Z,18.00
2018-03-24T19:16:51.372Z,18.70
2018-03-24T19:19:18.834Z,17.37
2018-03-24T19:21:47.093Z,18.63
2018-03-24T19:24:14.589Z,18.40
2018-03-24T19:26:42.076Z,23.90
2018-03-24T19:29:09.522Z,19.50
2018-03-24T19:31:37.027Z,19.93
2018-03-24T19:34:04.495Z,19.90
2018-03-24T19:36:32.777Z,19.53
2018-03-24T19:39:01.012Z,19.90
2018-03-24T19:41:28.568Z,18.70
2018-03-24T19:43:56.076Z,18.90
2018-03-24T19:46:23.629Z,19.77
2018-03-24T19:48:51.936Z,20.20
2018-03-24T19:51:19.437Z,19.27
2018-03-24T19:53:47.764Z,20.30
2018-03-24T19:56:15.268Z,20.87
2018-03-24T19:58:43.604Z,20.63
2018-03-24T20:01:11.132Z,19.40
2018-03-24T20:03:38.691Z,20.17
2018-03-24T20:06:06.946Z,20.13
2018-03-24T20:08:35.237Z,19.20
2018-03-24T20:11:03.509Z,19.90
2018-03-24T20:13:31.883Z,19.80
2018-03-24T20:16:00.164Z,19.03
2018-03-24T20:18:28.545Z,19.10
2018-03-24T20:20:56.901Z,20.03
2018-03-24T20:23:24.400Z,20.30
2018-03-24T20:25:51.929Z,18.10
2018-03-24T20:28:20.260Z,19.53
2018-03-24T20:30:47.844Z,20.60
2018-03-24T20:33:16.906Z,22.20
2018-03-24T20:35:44.437Z,22.17
2018-03-24T20:38:11.936Z,21.50
2018-03-24T20:40:39.502Z,21.67
2018-03-24T20:43:07.027Z,21.83
2018-03-24T20:45:34.570Z,21.50
2018-03-24T20:48:02.116Z,23.83
2018-03-24T20:50:29.630Z,22.13
2018-03-24T20:52:57.199Z,20.20
2018-03-24T20:55:24.795Z,22.67
2018-03-24T20:57:52.355Z,22.60
2018-03-24T21:00:19.880Z,23.33
2018-03-24T21:02:47.442Z,22.20
2018-03-24T21:05:14.981Z,20.27
2018-03-24T21:07:42.582Z,21.43
2018-03-24T21:10:10.095Z,21.60
2018-03-24T21:12:37.658Z,21.97
2018-03-24T21:15:05.167Z,22.20
2018-03-24T21:17:32.738Z,21.00
2018-03-24T21:20:00.245Z,21.97
2018-03-24T21:22:27.768Z,20.20
2018-03-24T21:24:55.339Z,21.73
2018-03-24T21:27:22.838Z,23.93
2018-03-24T21:29:51.194Z,21.43
2018-03-24T21:32:18.722Z,22.30
2018-03-24T21:34:46.248Z,22.40
2018-03-24T21:37:13.779Z,22.20
2018-03-24T21:39:42.020Z,22.30
2018-03-24T21:42:09.528Z,24.83
2018-03-24T21:44:37.800Z,23.43
2018-03-24T21:47:06.092Z,21.80
2018-03-24T21:49:33.580Z,23.73
2018-03-24T21:52:01.073Z,24.00
2018-03-24T21:54:28.590Z,24.90
2018-03-24T21:56:56.068Z,22.80
2018-03-24T21:59:23.561Z,24.37
2018-03-24T22:01:51.790Z,24.77
2018-03-24T22:04:19.241Z,23.17
2018-03-24T22:06:46.734Z,23.13
2018-03-24T22:09:14.193Z,23.73
2018-03-24T22:11:42.439Z,24.40
2018-03-24T22:14:09.912Z,25.53
2018-03-24T22:16:37.392Z,24.73
2018-03-24T22:19:04.860Z,23.53
2018-03-24T22:21:32.353Z,27.47
2018-03-24T22:23:59.816Z,25.60
2018-03-24T22:26:27.308Z,24.00
2018-03-24T22:28:55.534Z,27.17
2018-03-24T22:31:23.057Z,25.10
2018-03-24T22:33:50.542Z,26.27
2018-03-24T22:36:18.046Z,26.27
2018-03-24T22:38:45.533Z,27.87
2018-03-24T22:41:13.048Z,26.37
2018-03-24T22:43:40.559Z,25.90
2018-03-24T22:46:08.069Z,24.80
2018-03-24T22:48:35.564Z,23.57
2018-03-24T22:51:03.029Z,27.20
2018-03-24T22:53:30.559Z,26.13
2018-03-24T22:55:58.797Z,29.97
2018-03-24T22:58:26.257Z,25.40
2018-03-24T23:00:53.750Z,26.97
2018-03-24T23:03:22.004Z,27.47
2018-03-24T23:05:49.481Z,26.40
2018-03-24T23:08:17.763Z,26.63
2018-03-24T23:10:45.972Z,27.03
2018-03-24T23:13:13.447Z,25.07
2018-03-24T23:15:40.903Z,24.30
2018-03-24T23:18:08.385Z,25.27
2018-03-24T23:20:36.609Z,27.83
2018-03-24T23:23:04.071Z,28.27
2018-03-24T23:25:31.559Z,24.93
2018-03-24T23:27:59.006Z,25.40
2018-03-24T23:30:26.492Z,27.13
2018-03-24T23:32:54.729Z,28.07
2018-03-24T23:35:22.233Z,25.87
2018-03-24T23:37:49.690Z,25.47
2018-03-24T23:40:17.937Z,25.87
2018-03-24T23:42:45.375Z,26.37
2018-03-24T23:45:12.871Z,27.50
2018-03-24T23:47:41.104Z,26.70
2018-03-24T23:50:08.602Z,28.50
2018-03-24T23:52:36.821Z,26.67
2018-03-24T23:55:04.312Z,30.57
2018-03-24T23:57:31.768Z,28.73
2018-03-24T23:59:59.266Z,28.70
